createdAt,value
2018-07-17T00:05:02.102Z,21.37
2018-07-17T00:10:04.493Z,21.29
2018-07-17T00:15:06.705Z,21.19
2018-07-17T00:20:08.848Z,21.22
2018-07-17T00:25:11.015Z,21.26
2018-07-17T00:30:13.174Z,21.20
2018-07-17T00:35:15.353Z,21.07
2018-07-17T00:40:17.484Z,20.82
2018-07-17T00:45:19.646Z,20.78
2018-07-17T00:50:21.973Z,20.80
2018-07-17T00:55:24.103Z,20.63
2018-07-17T01:00:32.058Z,20.53
2018-07-17T01:05:39.952Z,20.39
2018-07-17T01:10:47.819Z,20.40
2018-07-17T01:15:50.006Z,20.34
2018-07-17T01:20:52.187Z,20.35
2018-07-17T01:25:54.372Z,20.36
2018-07-17T01:30:56.495Z,20.31
2018-07-17T01:35:58.658Z,20.21
2018-07-17T01:41:00.820Z,20.16
2018-07-17T01:46:02.955Z,20.25
2018-07-17T01:51:05.105Z,20.07
2018-07-17T01:56:07.247Z,19.97
2018-07-17T02:01:09.391Z,19.99
2018-07-17T02:06:11.564Z,19.96
2018-07-17T02:11:13.716Z,19.90
2018-07-17T02:16:15.863Z,19.95
2018-07-17T02:21:17.983Z,19.91
2018-07-17T02:26:20.117Z,19.72
2018-07-17T02:31:22.235Z,19.54
2018-07-17T02:36:24.369Z,19.51
2018-07-17T02:41:26.498Z,19.50
2018-07-17T02:46:28.648Z,19.57
2018-07-17T02:51:30.773Z,19.51
2018-07-17T02:56:32.919Z,19.41
2018-07-17T03:01:35.054Z,19.39
2018-07-17T03:06:37.180Z,19.43
2018-07-17T03:11:39.326Z,19.35
2018-07-17T03:16:41.483Z,19.19
2018-07-17T03:21:43.638Z,19.33
2018-07-17T03:26:45.732Z,19.34
2018-07-17T03:31:47.862Z,19.35
2018-07-17T03:36:50.003Z,19.20
2018-07-17T03:41:52.166Z,19.21
2018-07-17T03:46:54.262Z,19.26
2018-07-17T03:51:56.463Z,19.22
2018-07-17T03:56:58.599Z,19.31
2018-07-17T04:02:00.700Z,19.37
2018-07-17T04:07:02.878Z,19.37
2018-07-17T04:12:05.187Z,19.48
2018-07-17T04:17:07.365Z,19.46
2018-07-17T04:22:09.533Z,19.50
2018-07-17T04:27:11.745Z,19.58
2018-07-17T04:32:13.858Z,19.54
2018-07-17T04:37:16.087Z,19.70
2018-07-17T04:42:18.231Z,19.77
2018-07-17T04:47:20.376Z,19.73
2018-07-17T04:52:22.539Z,19.87
2018-07-17T04:57:24.692Z,20.08
2018-07-17T05:02:26.821Z,20.24
2018-07-17T05:07:28.947Z,20.30
2018-07-17T05:12:31.186Z,20.42
2018-07-17T05:17:33.330Z,20.51
2018-07-17T05:22:35.523Z,20.73
2018-07-17T05:27:37.680Z,20.96
2018-07-17T05:32:39.810Z,21.10
2018-07-17T05:37:42.395Z,21.20
2018-07-17T05:42:44.631Z,21.38
2018-07-17T05:47:46.818Z,21.59
2018-07-17T05:52:48.977Z,21.72
2018-07-17T05:57:51.118Z,21.85
2018-07-17T06:02:53.297Z,21.98
2018-07-17T06:07:55.425Z,22.15
2018-07-17T06:12:58.075Z,22.29
2018-07-17T06:18:00.232Z,22.46
2018-07-17T06:23:02.394Z,22.59
2018-07-17T06:28:04.556Z,22.73
2018-07-17T06:33:06.703Z,22.87
2018-07-17T06:38:08.888Z,23.04
2018-07-17T06:43:11.031Z,23.20
2018-07-17T06:48:13.167Z,23.44
2018-07-17T06:53:15.365Z,23.83
2018-07-17T06:58:17.528Z,24.16
2018-07-17T07:03:19.658Z,24.26
2018-07-17T07:08:21.788Z,24.22
2018-07-17T07:13:23.963Z,24.42
2018-07-17T07:18:26.214Z,24.56
2018-07-17T07:23:28.387Z,24.65
2018-07-17T07:28:30.564Z,24.71
2018-07-17T07:33:32.776Z,24.80
2018-07-17T07:38:34.975Z,24.83
2018-07-17T07:43:37.136Z,24.83
2018-07-17T07:48:39.299Z,24.98
2018-07-17T07:53:41.523Z,25.14
2018-07-17T07:58:44.498Z,25.32
2018-07-17T08:03:46.641Z,25.52
2018-07-17T08:08:48.799Z,25.66
2018-07-17T08:13:50.969Z,25.80
2018-07-17T08:18:53.091Z,25.93
2018-07-17T08:23:55.259Z,25.97
2018-07-17T08:28:57.371Z,26.14
2018-07-17T08:33:59.522Z,26.31
2018-07-17T08:39:01.667Z,26.36
2018-07-17T08:44:03.878Z,26.50
2018-07-17T08:49:06.144Z,26.56
2018-07-17T08:54:08.368Z,26.76
2018-07-17T08:59:10.612Z,26.85
2018-07-17T09:04:12.772Z,26.81
2018-07-17T09:09:14.943Z,26.82
2018-07-17T09:14:17.095Z,26.91
2018-07-17T09:19:19.238Z,27.06
2018-07-17T09:24:21.416Z,27.16
2018-07-17T09:29:23.815Z,27.27
2018-07-17T09:34:25.995Z,27.30
2018-07-17T09:39:28.160Z,27.36
2018-07-17T09:44:30.362Z,27.42
2018-07-17T09:49:32.465Z,27.52
2018-07-17T09:54:34.616Z,27.57
2018-07-17T09:59:36.783Z,27.69
2018-07-17T10:04:38.999Z,27.69
2018-07-17T10:09:41.107Z,27.85
2018-07-17T10:14:43.235Z,27.94
2018-07-17T10:19:45.401Z,28.04
2018-07-17T10:24:47.525Z,28.14
2018-07-17T10:29:49.683Z,28.13
2018-07-17T10:34:51.895Z,28.31
2018-07-17T10:39:54.050Z,28.35
2018-07-17T10:44:56.220Z,28.65
2018-07-17T10:49:58.367Z,28.92
2018-07-17T10:55:00.593Z,29.16
2018-07-17T11:00:02.818Z,29.50
2018-07-17T11:05:04.994Z,29.55
2018-07-17T11:10:07.160Z,29.69
2018-07-17T11:15:09.310Z,30.02
2018-07-17T11:20:11.460Z,30.26
2018-07-17T11:25:13.545Z,30.61
2018-07-17T11:30:15.703Z,30.86
2018-07-17T11:35:17.874Z,30.89
2018-07-17T11:40:20.071Z,31.12
2018-07-17T11:45:22.259Z,31.50
2018-07-17T11:50:24.428Z,31.12
2018-07-17T11:55:26.609Z,30.17
2018-07-17T12:00:28.764Z,29.51
2018-07-17T12:05:30.980Z,28.79
2018-07-17T12:10:33.089Z,28.69
2018-07-17T12:15:35.261Z,28.52
2018-07-17T12:20:37.570Z,28.20
2018-07-17T12:25:39.597Z,28.35
2018-07-17T12:30:41.909Z,28.63
2018-07-17T12:35:44.075Z,28.96
2018-07-17T12:40:46.335Z,29.03
2018-07-17T12:45:48.498Z,30.22
2018-07-17T12:50:50.701Z,30.42
2018-07-17T12:55:52.929Z,30.43
2018-07-17T13:00:55.102Z,30.75
2018-07-17T13:05:57.244Z,31.08
2018-07-17T13:10:59.415Z,30.86
2018-07-17T13:16:01.573Z,31.31
2018-07-17T13:21:03.723Z,30.83
2018-07-17T13:26:06.192Z,31.79
2018-07-17T13:31:08.350Z,32.86
2018-07-17T13:36:10.552Z,32.94
2018-07-17T13:41:12.724Z,31.93
2018-07-17T13:46:14.874Z,31.22
2018-07-17T13:51:17.051Z,30.86
2018-07-17T13:56:19.337Z,32.09
2018-07-17T14:01:21.491Z,33.10
2018-07-17T14:06:23.690Z,33.65
2018-07-17T14:11:25.868Z,34.20
2018-07-17T14:16:28.021Z,34.61
2018-07-17T14:21:30.336Z,34.92
2018-07-17T14:26:32.496Z,35.36
2018-07-17T14:31:34.655Z,35.06
2018-07-17T14:36:36.844Z,35.36
2018-07-17T14:41:39.196Z,35.66
2018-07-17T14:46:41.287Z,34.79
2018-07-17T14:51:43.435Z,33.90
2018-07-17T14:56:45.722Z,33.92
2018-07-17T15:01:47.932Z,33.65
2018-07-17T15:06:50.097Z,33.24
2018-07-17T15:11:52.229Z,33.26
2018-07-17T15:16:54.372Z,33.02
2018-07-17T15:21:56.615Z,33.09
2018-07-17T15:26:58.765Z,33.05
2018-07-17T15:32:00.932Z,31.93
2018-07-17T15:37:03.203Z,30.79
2018-07-17T15:42:05.694Z,31.03
2018-07-17T15:47:07.865Z,31.66
2018-07-17T15:52:10.134Z,31.38
2018-07-17T15:57:12.404Z,32.18
2018-07-17T16:02:14.644Z,32.22
2018-07-17T16:07:16.831Z,32.14
2018-07-17T16:12:19.029Z,32.35
2018-07-17T16:17:21.250Z,32.67
2018-07-17T16:22:23.451Z,32.84
2018-07-17T16:27:25.667Z,32.90
2018-07-17T16:32:27.922Z,32.90
2018-07-17T16:37:30.137Z,33.07
2018-07-17T16:42:32.330Z,33.16
2018-07-17T16:47:34.511Z,33.21
2018-07-17T16:52:36.830Z,33.16
2018-07-17T16:57:39.080Z,33.02
2018-07-17T17:02:41.259Z,32.94
2018-07-17T17:07:43.444Z,32.85
2018-07-17T17:12:45.628Z,32.58
2018-07-17T17:17:47.802Z,32.60
2018-07-17T17:22:49.980Z,32.63
2018-07-17T17:27:52.141Z,32.60
2018-07-17T17:32:54.458Z,32.54
2018-07-17T17:37:56.640Z,32.56
2018-07-17T17:42:58.837Z,32.33
2018-07-17T17:48:01.110Z,32.23
2018-07-17T17:53:03.369Z,32.14
2018-07-17T17:58:05.995Z,31.89
2018-07-17T18:03:09.019Z,31.69
2018-07-17T18:08:11.224Z,31.44
2018-07-17T18:13:13.457Z,31.43
2018-07-17T18:18:15.683Z,31.08
2018-07-17T18:23:17.977Z,30.51
2018-07-17T18:28:20.239Z,29.93
2018-07-17T18:33:22.545Z,29.58
2018-07-17T18:38:24.726Z,29.30
2018-07-17T18:43:26.998Z,29.09
2018-07-17T18:48:29.287Z,28.90
2018-07-17T18:53:32.285Z,28.76
2018-07-17T18:58:34.650Z,28.59
2018-07-17T19:03:37.249Z,28.37
2018-07-17T19:08:39.526Z,28.14
2018-07-17T19:13:41.811Z,27.98
2018-07-17T19:18:44.027Z,27.88
2018-07-17T19:23:46.341Z,27.64
2018-07-17T19:28:48.569Z,27.60
2018-07-17T19:33:50.922Z,27.44
2018-07-17T19:38:53.240Z,27.24
2018-07-17T19:43:55.498Z,27.17
2018-07-17T19:48:57.764Z,27.07
2018-07-17T19:54:00.230Z,26.91
2018-07-17T19:59:02.539Z,26.32
2018-07-17T20:04:05.166Z,25.76
2018-07-17T20:09:08.061Z,25.65
2018-07-17T20:14:10.394Z,25.58
2018-07-17T20:19:12.631Z,25.12
2018-07-17T20:24:14.920Z,25.29
2018-07-17T20:29:17.187Z,25.24
2018-07-17T20:34:19.474Z,25.27
2018-07-17T20:39:21.830Z,25.19
2018-07-17T20:44:24.106Z,24.94
2018-07-17T20:49:26.350Z,24.95
2018-07-17T20:54:28.637Z,24.85
2018-07-17T20:59:30.912Z,24.60
2018-07-17T21:04:33.142Z,24.72
2018-07-17T21:09:35.379Z,24.54
2018-07-17T21:14:37.565Z,24.57
2018-07-17T21:19:39.823Z,24.17
2018-07-17T21:24:42.065Z,24.27
2018-07-17T21:29:44.282Z,24.36
2018-07-17T21:34:47.159Z,24.17
2018-07-17T21:39:49.471Z,24.01
2018-07-17T21:44:51.744Z,23.99
2018-07-17T21:49:53.987Z,23.92
2018-07-17T21:54:56.180Z,23.89
2018-07-17T21:59:58.406Z,23.64
2018-07-17T22:05:00.541Z,23.54
2018-07-17T22:10:02.758Z,23.48
2018-07-17T22:15:04.984Z,23.66
2018-07-17T22:20:08.036Z,23.63
2018-07-17T22:25:10.260Z,23.53
2018-07-17T22:30:12.465Z,23.48
2018-07-17T22:35:14.668Z,23.34
2018-07-17T22:40:16.822Z,23.51
2018-07-17T22:45:19.003Z,23.58
2018-07-17T22:50:21.162Z,23.52
2018-07-17T22:55:23.462Z,23.47
2018-07-17T23:00:25.705Z,23.56
2018-07-17T23:05:27.892Z,23.66
2018-07-17T23:10:30.078Z,23.59
2018-07-17T23:15:32.214Z,23.36
2018-07-17T23:20:34.363Z,23.23
2018-07-17T23:25:36.528Z,23.28
2018-07-17T23:30:38.708Z,23.21
2018-07-17T23:35:40.885Z,22.80
2018-07-17T23:40:43.027Z,22.46
2018-07-17T23:45:45.191Z,22.20
2018-07-17T23:50:47.329Z,22.12
2018-07-17T23:55:49.454Z,22.07
